sensor_id;sensor_type;location;lat;lon;timestamp;P1;durP1;ratioP1;P2;durP2;ratioP2
40609;SDS011;26316;55.976;37.140;2023-02-01T00:00:04;5.03;;;4.40;;
40609;SDS011;26316;55.976;37.140;2023-02-01T00:02:31;5.28;;;4.53;;
40609;SDS011;26316;55.976;37.140;2023-02-01T00:04:56;5.07;;;4.55;;
40609;SDS011;26316;55.976;37.140;2023-02-01T00:07:22;4.85;;;4.35;;
40609;SDS011;26316;55.976;37.140;2023-02-01T00:09:48;5.22;;;4.68;;
40609;SDS011;26316;55.976;37.140;2023-02-01T00:12:13;4.80;;;4.30;;
40609;SDS011;26316;55.976;37.140;2023-02-01T00:14:39;5.78;;;4.60;;
40609;SDS011;26316;55.976;37.140;2023-02-01T00:17:05;4.82;;;4.30;;
40609;SDS011;26316;55.976;37.140;2023-02-01T00:19:32;5.30;;;4.80;;
40609;SDS011;26316;55.976;37.140;2023-02-01T00:21:59;4.97;;;4.35;;
40609;SDS011;26316;55.976;37.140;2023-02-01T00:24:24;7.28;;;4.95;;
40609;SDS011;26316;55.976;37.140;2023-02-01T00:26:50;6.20;;;5.03;;
40609;SDS011;26316;55.976;37.140;2023-02-01T00:29:17;6.13;;;5.18;;
40609;SDS011;26316;55.976;37.140;2023-02-01T00:31:44;5.65;;;4.43;;
40609;SDS011;26316;55.976;37.140;2023-02-01T00:34:15;6.57;;;4.88;;
40609;SDS011;26316;55.976;37.140;2023-02-01T00:36:41;6.78;;;4.95;;
40609;SDS011;26316;55.976;37.140;2023-02-01T00:39:08;5.05;;;4.32;;
40609;SDS011;26316;55.976;37.140;2023-02-01T00:41:33;6.07;;;5.43;;
40609;SDS011;26316;55.976;37.140;2023-02-01T00:43:59;6.20;;;4.68;;
40609;SDS011;26316;55.976;37.140;2023-02-01T00:46:25;5.82;;;5.10;;
40609;SDS011;26316;55.976;37.140;2023-02-01T00:48:50;6.05;;;5.40;;
40609;SDS011;26316;55.976;37.140;2023-02-01T00:51:23;6.30;;;5.32;;
40609;SDS011;26316;55.976;37.140;2023-02-01T00:53:51;5.28;;;4.78;;
40609;SDS011;26316;55.976;37.140;2023-02-01T00:56:18;5.30;;;4.80;;
40609;SDS011;26316;55.976;37.140;2023-02-01T00:58:43;5.70;;;5.00;;
40609;SDS011;26316;55.976;37.140;2023-02-01T01:03:41;5.13;;;4.63;;
40609;SDS011;26316;55.976;37.140;2023-02-01T01:06:09;5.57;;;5.07;;
40609;SDS011;26316;55.976;37.140;2023-02-01T01:08:37;7.78;;;5.25;;
40609;SDS011;26316;55.976;37.140;2023-02-01T01:11:04;5.80;;;4.88;;
40609;SDS011;26316;55.976;37.140;2023-02-01T01:13:34;7.65;;;5.47;;
40609;SDS011;26316;55.976;37.140;2023-02-01T01:16:01;5.80;;;5.20;;
40609;SDS011;26316;55.976;37.140;2023-02-01T01:18:30;6.07;;;5.47;;
40609;SDS011;26316;55.976;37.140;2023-02-01T01:20:56;6.10;;;5.50;;
40609;SDS011;26316;55.976;37.140;2023-02-01T01:23:22;6.00;;;5.38;;
40609;SDS011;26316;55.976;37.140;2023-02-01T01:25:48;6.65;;;5.60;;
40609;SDS011;26316;55.976;37.140;2023-02-01T01:28:13;5.78;;;5.18;;
40609;SDS011;26316;55.976;37.140;2023-02-01T01:30:39;6.10;;;5.00;;
40609;SDS011;26316;55.976;37.140;2023-02-01T01:33:05;5.65;;;4.65;;
40609;SDS011;26316;55.976;37.140;2023-02-01T01:35:31;5.38;;;4.78;;
40609;SDS011;26316;55.976;37.140;2023-02-01T01:37:57;7.97;;;5.28;;
40609;SDS011;26316;55.976;37.140;2023-02-01T01:40:24;5.75;;;4.78;;
40609;SDS011;26316;55.976;37.140;2023-02-01T01:42:51;4.88;;;4.40;;
40609;SDS011;26316;55.976;37.140;2023-02-01T01:47:59;5.72;;;4.28;;
40609;SDS011;26316;55.976;37.140;2023-02-01T01:50:38;5.95;;;4.15;;
40609;SDS011;26316;55.976;37.140;2023-02-01T01:53:07;5.05;;;4.53;;
40609;SDS011;26316;55.976;37.140;2023-02-01T01:55:36;3.70;;;3.40;;
40609;SDS011;26316;55.976;37.140;2023-02-01T01:58:14;5.60;;;3.95;;
40609;SDS011;26316;55.976;37.140;2023-02-01T02:00:43;4.15;;;3.78;;
40609;SDS011;26316;55.976;37.140;2023-02-01T02:05:54;3.92;;;3.30;;
40609;SDS011;26316;55.976;37.140;2023-02-01T02:08:21;3.20;;;2.90;;
40609;SDS011;26316;55.976;37.140;2023-02-01T02:10:48;3.72;;;3.42;;
40609;SDS011;26316;55.976;37.140;2023-02-01T02:13:25;3.67;;;3.30;;
40609;SDS011;26316;55.976;37.140;2023-02-01T02:36:19;4.90;;;4.40;;
40609;SDS011;26316;55.976;37.140;2023-02-01T02:41:33;6.05;;;5.00;;
40609;SDS011;26316;55.976;37.140;2023-02-01T02:44:25;5.68;;;5.07;;
40609;SDS011;26316;55.976;37.140;2023-02-01T02:50:17;5.93;;;5.32;;
40609;SDS011;26316;55.976;37.140;2023-02-01T02:53:09;7.53;;;5.25;;
40609;SDS011;26316;55.976;37.140;2023-02-01T02:55:57;5.90;;;5.30;;
40609;SDS011;26316;55.976;37.140;2023-02-01T02:58:43;7.40;;;5.80;;
40609;SDS011;26316;55.976;37.140;2023-02-01T03:01:28;6.85;;;6.13;;
40609;SDS011;26316;55.976;37.140;2023-02-01T03:04:13;7.03;;;5.60;;
40609;SDS011;26316;55.976;37.140;2023-02-01T03:06:44;7.53;;;5.78;;
40609;SDS011;26316;55.976;37.140;2023-02-01T03:12:01;7.55;;;6.32;;
40609;SDS011;26316;55.976;37.140;2023-02-01T03:14:50;9.05;;;6.40;;
40609;SDS011;26316;55.976;37.140;2023-02-01T03:17:21;8.10;;;6.30;;
40609;SDS011;26316;55.976;37.140;2023-02-01T03:19:51;8.55;;;6.28;;
40609;SDS011;26316;55.976;37.140;2023-02-01T03:22:20;7.80;;;6.45;;
40609;SDS011;26316;55.976;37.140;2023-02-01T03:24:52;8.43;;;6.35;;
40609;SDS011;26316;55.976;37.140;2023-02-01T03:32:56;7.50;;;5.80;;
40609;SDS011;26316;55.976;37.140;2023-02-01T03:37:56;7.93;;;6.75;;
40609;SDS011;26316;55.976;37.140;2023-02-01T03:40:27;8.30;;;6.72;;
40609;SDS011;26316;55.976;37.140;2023-02-01T03:42:56;8.15;;;6.68;;
40609;SDS011;26316;55.976;37.140;2023-02-01T03:45:30;10.23;;;7.05;;
40609;SDS011;26316;55.976;37.140;2023-02-01T03:47:59;6.85;;;6.03;;
40609;SDS011;26316;55.976;37.140;2023-02-01T03:50:26;7.03;;;6.20;;
40609;SDS011;26316;55.976;37.140;2023-02-01T03:52:53;7.63;;;6.10;;
40609;SDS011;26316;55.976;37.140;2023-02-01T03:55:22;7.15;;;6.40;;
40609;SDS011;26316;55.976;37.140;2023-02-01T03:57:53;8.40;;;6.47;;
40609;SDS011;26316;55.976;37.140;2023-02-01T04:00:23;11.20;;;7.20;;
40609;SDS011;26316;55.976;37.140;2023-02-01T04:02:50;9.25;;;6.20;;
40609;SDS011;26316;55.976;37.140;2023-02-01T04:05:17;6.80;;;6.10;;
40609;SDS011;26316;55.976;37.140;2023-02-01T04:07:51;7.90;;;5.75;;
40609;SDS011;26316;55.976;37.140;2023-02-01T04:10:17;6.88;;;5.68;;
40609;SDS011;26316;55.976;37.140;2023-02-01T04:12:42;8.13;;;6.20;;
40609;SDS011;26316;55.976;37.140;2023-02-01T04:15:08;8.10;;;5.78;;
40609;SDS011;26316;55.976;37.140;2023-02-01T04:17:34;7.10;;;5.75;;
40609;SDS011;26316;55.976;37.140;2023-02-01T04:20:00;7.07;;;6.32;;
40609;SDS011;26316;55.976;37.140;2023-02-01T04:22:25;7.78;;;6.05;;
40609;SDS011;26316;55.976;37.140;2023-02-01T04:24:51;7.53;;;6.30;;
40609;SDS011;26316;55.976;37.140;2023-02-01T04:27:16;7.93;;;6.40;;
40609;SDS011;26316;55.976;37.140;2023-02-01T04:29:42;7.03;;;6.30;;
40609;SDS011;26316;55.976;37.140;2023-02-01T04:32:08;9.10;;;6.28;;
40609;SDS011;26316;55.976;37.140;2023-02-01T04:34:33;8.50;;;6.45;;
40609;SDS011;26316;55.976;37.140;2023-02-01T04:36:59;6.90;;;6.20;;
40609;SDS011;26316;55.976;37.140;2023-02-01T04:39:25;7.35;;;6.50;;
40609;SDS011;26316;55.976;37.140;2023-02-01T04:41:50;8.82;;;6.47;;
40609;SDS011;26316;55.976;37.140;2023-02-01T04:44:16;7.22;;;5.90;;
40609;SDS011;26316;55.976;37.140;2023-02-01T04:46:43;8.35;;;6.60;;
40609;SDS011;26316;55.976;37.140;2023-02-01T04:49:09;8.95;;;6.88;;
40609;SDS011;26316;55.976;37.140;2023-02-01T04:51:35;7.95;;;6.15;;
40609;SDS011;26316;55.976;37.140;2023-02-01T04:54:01;8.23;;;6.75;;
40609;SDS011;26316;55.976;37.140;2023-02-01T04:56:26;8.32;;;5.88;;
40609;SDS011;26316;55.976;37.140;2023-02-01T04:58:52;8.27;;;6.45;;
40609;SDS011;26316;55.976;37.140;2023-02-01T05:01:18;8.88;;;6.57;;
40609;SDS011;26316;55.976;37.140;2023-02-01T05:03:43;9.25;;;6.65;;
40609;SDS011;26316;55.976;37.140;2023-02-01T05:06:09;9.20;;;7.32;;
40609;SDS011;26316;55.976;37.140;2023-02-01T05:08:35;7.72;;;6.18;;
40609;SDS011;26316;55.976;37.140;2023-02-01T05:11:01;9.77;;;7.35;;
40609;SDS011;26316;55.976;37.140;2023-02-01T05:13:29;8.45;;;6.93;;
40609;SDS011;26316;55.976;37.140;2023-02-01T05:16:13;8.18;;;6.80;;
40609;SDS011;26316;55.976;37.140;2023-02-01T05:18:39;9.07;;;6.93;;
40609;SDS011;26316;55.976;37.140;2023-02-01T05:21:05;9.43;;;7.05;;
40609;SDS011;26316;55.976;37.140;2023-02-01T05:23:31;10.13;;;6.78;;
40609;SDS011;26316;55.976;37.140;2023-02-01T05:25:59;8.48;;;7.13;;
40609;SDS011;26316;55.976;37.140;2023-02-01T05:28:26;10.30;;;7.60;;
40609;SDS011;26316;55.976;37.140;2023-02-01T05:30:52;9.90;;;6.93;;
40609;SDS011;26316;55.976;37.140;2023-02-01T05:33:17;9.88;;;7.13;;
40609;SDS011;26316;55.976;37.140;2023-02-01T05:35:43;10.35;;;7.15;;
40609;SDS011;26316;55.976;37.140;2023-02-01T05:38:09;8.90;;;7.32;;
40609;SDS011;26316;55.976;37.140;2023-02-01T05:40:34;10.20;;;5.72;;
40609;SDS011;26316;55.976;37.140;2023-02-01T05:43:00;6.68;;;5.53;;
40609;SDS011;26316;55.976;37.140;2023-02-01T05:45:25;8.07;;;5.72;;
40609;SDS011;26316;55.976;37.140;2023-02-01T05:47:51;7.07;;;5.38;;
40609;SDS011;26316;55.976;37.140;2023-02-01T05:50:16;7.20;;;5.47;;
40609;SDS011;26316;55.976;37.140;2023-02-01T05:52:42;7.05;;;5.70;;
40609;SDS011;26316;55.976;37.140;2023-02-01T05:55:08;5.72;;;5.13;;
40609;SDS011;26316;55.976;37.140;2023-02-01T05:57:33;5.53;;;4.93;;
40609;SDS011;26316;55.976;37.140;2023-02-01T05:59:59;7.53;;;5.30;;
40609;SDS011;26316;55.976;37.140;2023-02-01T06:02:25;7.93;;;5.07;;
40609;SDS011;26316;55.976;37.140;2023-02-01T06:04:50;9.65;;;5.20;;
40609;SDS011;26316;55.976;37.140;2023-02-01T06:07:16;7.30;;;4.82;;
40609;SDS011;26316;55.976;37.140;2023-02-01T06:09:42;9.65;;;5.88;;
40609;SDS011;26316;55.976;37.140;2023-02-01T06:12:07;4.75;;;4.25;;
40609;SDS011;26316;55.976;37.140;2023-02-01T06:14:33;6.03;;;5.43;;
40609;SDS011;26316;55.976;37.140;2023-02-01T06:16:59;6.20;;;5.45;;
40609;SDS011;26316;55.976;37.140;2023-02-01T06:19:25;9.13;;;3.83;;
40609;SDS011;26316;55.976;37.140;2023-02-01T06:21:50;7.72;;;4.03;;
40609;SDS011;26316;55.976;37.140;2023-02-01T06:24:16;5.75;;;4.47;;
40609;SDS011;26316;55.976;37.140;2023-02-01T06:26:42;6.45;;;5.28;;
40609;SDS011;26316;55.976;37.140;2023-02-01T06:29:09;5.18;;;4.68;;
40609;SDS011;26316;55.976;37.140;2023-02-01T06:31:35;7.03;;;5.85;;
40609;SDS011;26316;55.976;37.140;2023-02-01T06:34:01;5.50;;;4.68;;
40609;SDS011;26316;55.976;37.140;2023-02-01T06:36:28;7.28;;;5.50;;
40609;SDS011;26316;55.976;37.140;2023-02-01T06:38:54;7.88;;;5.93;;
40609;SDS011;26316;55.976;37.140;2023-02-01T06:41:22;8.13;;;6.05;;
40609;SDS011;26316;55.976;37.140;2023-02-01T06:43:48;6.85;;;5.78;;
40609;SDS011;26316;55.976;37.140;2023-02-01T06:46:14;7.82;;;6.00;;
40609;SDS011;26316;55.976;37.140;2023-02-01T06:48:40;5.85;;;5.25;;
40609;SDS011;26316;55.976;37.140;2023-02-01T06:51:06;6.78;;;5.80;;
40609;SDS011;26316;55.976;37.140;2023-02-01T06:53:47;8.18;;;6.07;;
40609;SDS011;26316;55.976;37.140;2023-02-01T06:56:13;8.57;;;6.07;;
40609;SDS011;26316;55.976;37.140;2023-02-01T06:58:38;9.43;;;6.95;;
40609;SDS011;26316;55.976;37.140;2023-02-01T07:01:05;8.07;;;5.97;;
40609;SDS011;26316;55.976;37.140;2023-02-01T07:03:31;12.10;;;6.60;;
40609;SDS011;26316;55.976;37.140;2023-02-01T07:05:56;8.88;;;6.82;;
40609;SDS011;26316;55.976;37.140;2023-02-01T07:08:29;8.70;;;6.80;;
40609;SDS011;26316;55.976;37.140;2023-02-01T07:10:56;8.93;;;6.35;;
40609;SDS011;26316;55.976;37.140;2023-02-01T07:13:22;8.27;;;6.68;;
40609;SDS011;26316;55.976;37.140;2023-02-01T07:15:47;27.02;;;6.68;;
40609;SDS011;26316;55.976;37.140;2023-02-01T07:18:16;9.07;;;6.90;;
40609;SDS011;26316;55.976;37.140;2023-02-01T07:20:41;10.18;;;6.97;;
40609;SDS011;26316;55.976;37.140;2023-02-01T07:23:10;11.77;;;6.95;;
40609;SDS011;26316;55.976;37.140;2023-02-01T07:25:36;8.90;;;7.00;;
40609;SDS011;26316;55.976;37.140;2023-02-01T07:28:02;8.00;;;6.88;;
40609;SDS011;26316;55.976;37.140;2023-02-01T07:30:27;9.35;;;6.85;;
40609;SDS011;26316;55.976;37.140;2023-02-01T07:32:53;10.88;;;7.20;;
40609;SDS011;26316;55.976;37.140;2023-02-01T07:35:19;9.43;;;7.22;;
40609;SDS011;26316;55.976;37.140;2023-02-01T07:37:44;9.43;;;7.30;;
40609;SDS011;26316;55.976;37.140;2023-02-01T07:40:10;10.43;;;8.38;;
40609;SDS011;26316;55.976;37.140;2023-02-01T07:42:36;9.18;;;7.20;;
40609;SDS011;26316;55.976;37.140;2023-02-01T07:45:02;11.55;;;7.60;;
40609;SDS011;26316;55.976;37.140;2023-02-01T07:47:29;12.93;;;8.55;;
40609;SDS011;26316;55.976;37.140;2023-02-01T07:49:54;11.32;;;7.88;;
40609;SDS011;26316;55.976;37.140;2023-02-01T07:52:20;9.70;;;7.43;;
40609;SDS011;26316;55.976;37.140;2023-02-01T07:54:45;10.52;;;8.43;;
40609;SDS011;26316;55.976;37.140;2023-02-01T07:57:11;9.60;;;7.43;;
40609;SDS011;26316;55.976;37.140;2023-02-01T07:59:37;10.48;;;8.05;;
40609;SDS011;26316;55.976;37.140;2023-02-01T08:02:22;11.95;;;8.50;;
40609;SDS011;26316;55.976;37.140;2023-02-01T08:04:48;13.15;;;9.65;;
40609;SDS011;26316;55.976;37.140;2023-02-01T08:07:14;15.02;;;9.60;;
40609;SDS011;26316;55.976;37.140;2023-02-01T08:09:39;12.32;;;8.43;;
40609;SDS011;26316;55.976;37.140;2023-02-01T08:12:05;13.65;;;9.38;;
40609;SDS011;26316;55.976;37.140;2023-02-01T08:14:31;10.90;;;8.32;;
40609;SDS011;26316;55.976;37.140;2023-02-01T08:16:57;11.55;;;9.10;;
40609;SDS011;26316;55.976;37.140;2023-02-01T08:19:22;13.57;;;9.90;;
40609;SDS011;26316;55.976;37.140;2023-02-01T08:21:48;14.07;;;9.88;;
40609;SDS011;26316;55.976;37.140;2023-02-01T08:24:14;14.35;;;10.20;;
40609;SDS011;26316;55.976;37.140;2023-02-01T08:26:39;13.88;;;9.52;;
40609;SDS011;26316;55.976;37.140;2023-02-01T08:29:06;15.00;;;10.27;;
40609;SDS011;26316;55.976;37.140;2023-02-01T08:31:32;14.65;;;9.93;;
40609;SDS011;26316;55.976;37.140;2023-02-01T08:33:59;13.52;;;10.18;;
40609;SDS011;26316;55.976;37.140;2023-02-01T08:36:27;15.75;;;11.57;;
40609;SDS011;26316;55.976;37.140;2023-02-01T08:38:53;16.02;;;10.68;;
40609;SDS011;26316;55.976;37.140;2023-02-01T08:41:20;15.63;;;10.68;;
40609;SDS011;26316;55.976;37.140;2023-02-01T08:43:47;16.90;;;11.20;;
40609;SDS011;26316;55.976;37.140;2023-02-01T08:46:13;18.35;;;12.77;;
40609;SDS011;26316;55.976;37.140;2023-02-01T08:48:39;14.07;;;10.57;;
40609;SDS011;26316;55.976;37.140;2023-02-01T08:51:06;15.35;;;11.52;;
40609;SDS011;26316;55.976;37.140;2023-02-01T08:53:33;16.52;;;10.55;;
40609;SDS011;26316;55.976;37.140;2023-02-01T08:55:59;14.70;;;10.40;;
40609;SDS011;26316;55.976;37.140;2023-02-01T08:58:25;14.82;;;10.48;;
40609;SDS011;26316;55.976;37.140;2023-02-01T09:00:51;15.23;;;10.73;;
40609;SDS011;26316;55.976;37.140;2023-02-01T09:03:17;17.08;;;11.50;;
40609;SDS011;26316;55.976;37.140;2023-02-01T09:05:43;14.35;;;10.70;;
40609;SDS011;26316;55.976;37.140;2023-02-01T09:08:10;17.80;;;12.07;;
40609;SDS011;26316;55.976;37.140;2023-02-01T09:10:37;16.63;;;10.85;;
40609;SDS011;26316;55.976;37.140;2023-02-01T09:13:03;13.32;;;9.52;;
40609;SDS011;26316;55.976;37.140;2023-02-01T09:15:28;12.88;;;9.15;;
40609;SDS011;26316;55.976;37.140;2023-02-01T09:17:54;13.82;;;9.82;;
40609;SDS011;26316;55.976;37.140;2023-02-01T09:20:20;13.70;;;10.10;;
40609;SDS011;26316;55.976;37.140;2023-02-01T09:22:49;15.90;;;10.67;;
40609;SDS011;26316;55.976;37.140;2023-02-01T09:25:17;13.80;;;10.43;;
40609;SDS011;26316;55.976;37.140;2023-02-01T09:27:43;13.27;;;9.55;;
40609;SDS011;26316;55.976;37.140;2023-02-01T09:30:09;13.77;;;10.45;;
40609;SDS011;26316;55.976;37.140;2023-02-01T09:32:35;13.50;;;10.07;;
40609;SDS011;26316;55.976;37.140;2023-02-01T09:35:01;13.43;;;9.35;;
40609;SDS011;26316;55.976;37.140;2023-02-01T09:37:28;11.45;;;9.38;;
40609;SDS011;26316;55.976;37.140;2023-02-01T09:39:54;14.55;;;10.10;;
40609;SDS011;26316;55.976;37.140;2023-02-01T09:42:43;13.70;;;9.60;;
40609;SDS011;26316;55.976;37.140;2023-02-01T09:48:24;13.10;;;9.75;;
40609;SDS011;26316;55.976;37.140;2023-02-01T09:50:56;10.70;;;8.30;;
40609;SDS011;26316;55.976;37.140;2023-02-01T09:55:52;12.55;;;9.20;;
40609;SDS011;26316;55.976;37.140;2023-02-01T09:58:26;12.18;;;8.77;;
40609;SDS011;26316;55.976;37.140;2023-02-01T10:00:57;12.20;;;8.43;;
40609;SDS011;26316;55.976;37.140;2023-02-01T10:03:24;11.88;;;8.35;;
40609;SDS011;26316;55.976;37.140;2023-02-01T10:11:25;15.70;;;8.90;;
40609;SDS011;26316;55.976;37.140;2023-02-01T10:16:38;13.63;;;9.00;;
40609;SDS011;26316;55.976;37.140;2023-02-01T10:22:05;9.75;;;7.80;;
40609;SDS011;26316;55.976;37.140;2023-02-01T10:24:39;13.20;;;8.45;;
40609;SDS011;26316;55.976;37.140;2023-02-01T10:27:22;11.82;;;8.07;;
40609;SDS011;26316;55.976;37.140;2023-02-01T10:29:52;12.02;;;8.70;;
40609;SDS011;26316;55.976;37.140;2023-02-01T10:32:33;10.18;;;8.27;;
40609;SDS011;26316;55.976;37.140;2023-02-01T10:35:21;13.50;;;8.00;;
40609;SDS011;26316;55.976;37.140;2023-02-01T10:37:49;12.63;;;9.18;;
40609;SDS011;26316;55.976;37.140;2023-02-01T10:40:25;11.32;;;7.93;;
40609;SDS011;26316;55.976;37.140;2023-02-01T10:42:52;9.55;;;7.78;;
40609;SDS011;26316;55.976;37.140;2023-02-01T10:45:20;13.25;;;9.07;;
40609;SDS011;26316;55.976;37.140;2023-02-01T10:47:51;12.38;;;8.07;;
40609;SDS011;26316;55.976;37.140;2023-02-01T10:53:12;10.05;;;8.25;;
40609;SDS011;26316;55.976;37.140;2023-02-01T10:58:18;12.02;;;8.77;;
40609;SDS011;26316;55.976;37.140;2023-02-01T11:01:00;9.00;;;7.72;;
40609;SDS011;26316;55.976;37.140;2023-02-01T11:05:56;8.90;;;6.97;;
40609;SDS011;26316;55.976;37.140;2023-02-01T11:08:21;10.23;;;7.63;;
40609;SDS011;26316;55.976;37.140;2023-02-01T11:10:49;11.70;;;8.00;;
40609;SDS011;26316;55.976;37.140;2023-02-01T11:13:30;9.98;;;6.82;;
40609;SDS011;26316;55.976;37.140;2023-02-01T11:16:01;9.93;;;7.75;;
40609;SDS011;26316;55.976;37.140;2023-02-01T11:18:29;10.77;;;7.10;;
40609;SDS011;26316;55.976;37.140;2023-02-01T11:20:56;9.65;;;7.97;;
40609;SDS011;26316;55.976;37.140;2023-02-01T11:23:23;10.27;;;7.00;;
40609;SDS011;26316;55.976;37.140;2023-02-01T11:25:51;10.00;;;7.90;;
40609;SDS011;26316;55.976;37.140;2023-02-01T11:28:24;8.65;;;7.50;;
40609;SDS011;26316;55.976;37.140;2023-02-01T11:31:02;8.32;;;7.22;;
40609;SDS011;26316;55.976;37.140;2023-02-01T11:33:30;8.90;;;7.28;;
40609;SDS011;26316;55.976;37.140;2023-02-01T11:36:21;10.07;;;7.78;;
40609;SDS011;26316;55.976;37.140;2023-02-01T11:39:17;7.90;;;7.10;;
40609;SDS011;26316;55.976;37.140;2023-02-01T11:49:50;7.72;;;6.70;;
40609;SDS011;26316;55.976;37.140;2023-02-01T12:06:12;9.10;;;7.20;;
40609;SDS011;26316;55.976;37.140;2023-02-01T12:09:16;9.98;;;8.43;;
40609;SDS011;26316;55.976;37.140;2023-02-01T12:20:03;9.77;;;7.97;;
40609;SDS011;26316;55.976;37.140;2023-02-01T12:39:05;9.50;;;8.45;;
40609;SDS011;26316;55.976;37.140;2023-02-01T12:41:36;10.45;;;8.98;;
40609;SDS011;26316;55.976;37.140;2023-02-01T12:47:12;9.38;;;8.20;;
40609;SDS011;26316;55.976;37.140;2023-02-01T12:55:07;11.20;;;7.95;;
40609;SDS011;26316;55.976;37.140;2023-02-01T12:57:40;8.80;;;7.53;;
40609;SDS011;26316;55.976;37.140;2023-02-01T13:05:14;8.90;;;7.65;;
40609;SDS011;26316;55.976;37.140;2023-02-01T13:07:48;8.60;;;7.70;;
40609;SDS011;26316;55.976;37.140;2023-02-01T13:10:16;11.32;;;8.80;;
40609;SDS011;26316;55.976;37.140;2023-02-01T13:12:57;9.70;;;7.80;;
40609;SDS011;26316;55.976;37.140;2023-02-01T13:15:30;8.48;;;7.13;;
40609;SDS011;26316;55.976;37.140;2023-02-01T13:18:00;11.55;;;7.95;;
40609;SDS011;26316;55.976;37.140;2023-02-01T13:20:31;9.60;;;7.90;;
40609;SDS011;26316;55.976;37.140;2023-02-01T13:23:04;8.88;;;7.95;;
40609;SDS011;26316;55.976;37.140;2023-02-01T13:25:47;9.25;;;8.20;;
40609;SDS011;26316;55.976;37.140;2023-02-01T13:28:33;10.23;;;7.93;;
40609;SDS011;26316;55.976;37.140;2023-02-01T13:39:48;9.25;;;8.25;;
40609;SDS011;26316;55.976;37.140;2023-02-01T13:42:21;10.52;;;7.85;;
40609;SDS011;26316;55.976;37.140;2023-02-01T13:44:52;10.27;;;8.73;;
40609;SDS011;26316;55.976;37.140;2023-02-01T13:47:29;10.85;;;9.25;;
40609;SDS011;26316;55.976;37.140;2023-02-01T13:49:58;10.45;;;9.15;;
40609;SDS011;26316;55.976;37.140;2023-02-01T13:52:38;10.63;;;9.27;;
40609;SDS011;26316;55.976;37.140;2023-02-01T13:57:47;10.35;;;8.75;;
40609;SDS011;26316;55.976;37.140;2023-02-01T14:13:46;12.00;;;9.43;;
40609;SDS011;26316;55.976;37.140;2023-02-01T14:23:41;9.35;;;7.80;;
40609;SDS011;26316;55.976;37.140;2023-02-01T14:26:09;9.05;;;8.18;;
40609;SDS011;26316;55.976;37.140;2023-02-01T14:28:38;10.18;;;9.07;;
40609;SDS011;26316;55.976;37.140;2023-02-01T14:31:13;10.25;;;8.63;;
40609;SDS011;26316;55.976;37.140;2023-02-01T14:34:20;9.75;;;8.48;;
40609;SDS011;26316;55.976;37.140;2023-02-01T14:36:58;9.35;;;8.32;;
40609;SDS011;26316;55.976;37.140;2023-02-01T14:39:31;13.27;;;8.50;;
40609;SDS011;26316;55.976;37.140;2023-02-01T14:42:01;10.63;;;8.00;;
40609;SDS011;26316;55.976;37.140;2023-02-01T14:44:30;11.97;;;8.33;;
40609;SDS011;26316;55.976;37.140;2023-02-01T14:52:36;9.38;;;8.38;;
40609;SDS011;26316;55.976;37.140;2023-02-01T14:55:15;8.98;;;8.02;;
40609;SDS011;26316;55.976;37.140;2023-02-01T14:57:44;8.73;;;7.78;;
40609;SDS011;26316;55.976;37.140;2023-02-01T15:02:47;9.73;;;8.48;;
40609;SDS011;26316;55.976;37.140;2023-02-01T15:07:56;8.82;;;7.53;;
40609;SDS011;26316;55.976;37.140;2023-02-01T15:10:24;8.95;;;8.05;;
40609;SDS011;26316;55.976;37.140;2023-02-01T15:12:50;8.13;;;7.10;;
40609;SDS011;26316;55.976;37.140;2023-02-01T15:15:17;8.43;;;7.50;;
40609;SDS011;26316;55.976;37.140;2023-02-01T15:17:55;8.77;;;7.88;;
40609;SDS011;26316;55.976;37.140;2023-02-01T15:20:24;9.82;;;8.27;;
40609;SDS011;26316;55.976;37.140;2023-02-01T15:25:24;8.02;;;7.07;;
40609;SDS011;26316;55.976;37.140;2023-02-01T15:28:16;8.30;;;7.38;;
40609;SDS011;26316;55.976;37.140;2023-02-01T15:30:59;8.30;;;7.50;;
40609;SDS011;26316;55.976;37.140;2023-02-01T15:33:26;8.63;;;7.72;;
40609;SDS011;26316;55.976;37.140;2023-02-01T15:35:54;10.00;;;8.63;;
40609;SDS011;26316;55.976;37.140;2023-02-01T15:38:37;9.05;;;7.70;;
40609;SDS011;26316;55.976;37.140;2023-02-01T15:46:14;9.40;;;8.07;;
40609;SDS011;26316;55.976;37.140;2023-02-01T15:48:46;9.05;;;8.07;;
40609;SDS011;26316;55.976;37.140;2023-02-01T15:51:20;8.55;;;7.65;;
40609;SDS011;26316;55.976;37.140;2023-02-01T15:54:02;9.98;;;8.07;;
40609;SDS011;26316;55.976;37.140;2023-02-01T15:56:36;8.93;;;7.32;;
40609;SDS011;26316;55.976;37.140;2023-02-01T15:59:04;8.98;;;7.75;;
40609;SDS011;26316;55.976;37.140;2023-02-01T16:01:36;8.68;;;7.28;;
40609;SDS011;26316;55.976;37.140;2023-02-01T16:06:52;9.85;;;8.40;;
40609;SDS011;26316;55.976;37.140;2023-02-01T16:09:51;8.32;;;7.43;;
40609;SDS011;26316;55.976;37.140;2023-02-01T16:12:45;9.90;;;7.57;;
40609;SDS011;26316;55.976;37.140;2023-02-01T16:15:11;8.38;;;7.40;;
40609;SDS011;26316;55.976;37.140;2023-02-01T16:17:37;10.38;;;8.13;;
40609;SDS011;26316;55.976;37.140;2023-02-01T16:20:03;11.13;;;8.23;;
40609;SDS011;26316;55.976;37.140;2023-02-01T16:22:29;8.30;;;7.43;;
40609;SDS011;26316;55.976;37.140;2023-02-01T16:24:55;9.40;;;7.65;;
40609;SDS011;26316;55.976;37.140;2023-02-01T16:27:20;7.82;;;7.03;;
40609;SDS011;26316;55.976;37.140;2023-02-01T16:29:47;10.55;;;8.55;;
40609;SDS011;26316;55.976;37.140;2023-02-01T16:32:17;8.70;;;7.80;;
40609;SDS011;26316;55.976;37.140;2023-02-01T16:34:45;12.85;;;9.10;;
40609;SDS011;26316;55.976;37.140;2023-02-01T16:37:15;10.52;;;8.38;;
40609;SDS011;26316;55.976;37.140;2023-02-01T16:39:44;10.88;;;8.57;;
40609;SDS011;26316;55.976;37.140;2023-02-01T16:42:10;9.98;;;8.00;;
40609;SDS011;26316;55.976;37.140;2023-02-01T16:44:37;9.80;;;8.15;;
40609;SDS011;26316;55.976;37.140;2023-02-01T16:47:02;8.95;;;7.60;;
40609;SDS011;26316;55.976;37.140;2023-02-01T16:49:28;10.20;;;8.90;;
40609;SDS011;26316;55.976;37.140;2023-02-01T16:51:55;9.65;;;8.02;;
40609;SDS011;26316;55.976;37.140;2023-02-01T16:54:22;9.55;;;7.85;;
40609;SDS011;26316;55.976;37.140;2023-02-01T16:56:48;9.07;;;7.80;;
40609;SDS011;26316;55.976;37.140;2023-02-01T16:59:13;10.77;;;8.90;;
40609;SDS011;26316;55.976;37.140;2023-02-01T17:01:40;9.15;;;7.82;;
40609;SDS011;26316;55.976;37.140;2023-02-01T17:04:08;11.23;;;7.40;;
40609;SDS011;26316;55.976;37.140;2023-02-01T17:06:34;11.63;;;7.95;;
40609;SDS011;26316;55.976;37.140;2023-02-01T17:09:04;8.32;;;7.05;;
40609;SDS011;26316;55.976;37.140;2023-02-01T17:11:31;9.93;;;8.35;;
40609;SDS011;26316;55.976;37.140;2023-02-01T17:14:00;9.73;;;8.27;;
40609;SDS011;26316;55.976;37.140;2023-02-01T17:16:33;9.23;;;8.20;;
40609;SDS011;26316;55.976;37.140;2023-02-01T17:19:00;10.43;;;8.43;;
40609;SDS011;26316;55.976;37.140;2023-02-01T17:21:29;9.68;;;7.72;;
40609;SDS011;26316;55.976;37.140;2023-02-01T17:23:56;9.10;;;7.40;;
40609;SDS011;26316;55.976;37.140;2023-02-01T17:26:24;10.68;;;8.55;;
40609;SDS011;26316;55.976;37.140;2023-02-01T17:28:49;9.43;;;7.82;;
40609;SDS011;26316;55.976;37.140;2023-02-01T17:31:15;10.38;;;8.25;;
40609;SDS011;26316;55.976;37.140;2023-02-01T17:33:41;8.57;;;7.55;;
40609;SDS011;26316;55.976;37.140;2023-02-01T17:36:14;10.20;;;8.38;;
40609;SDS011;26316;55.976;37.140;2023-02-01T17:38:41;10.40;;;8.02;;
40609;SDS011;26316;55.976;37.140;2023-02-01T17:41:11;13.25;;;7.35;;
40609;SDS011;26316;55.976;37.140;2023-02-01T17:43:37;10.25;;;8.23;;